sensor_id;sensor_type;location;lat;lon;timestamp;P1;durP1;ratioP1;P2;durP2;ratioP2
60026;SDS011;45891;53.006;6.512;2023-05-02T00:00:38;21.98;;;8.43;;
60026;SDS011;45891;53.006;6.512;2023-05-02T00:03:04;24.50;;;8.38;;
60026;SDS011;45891;53.006;6.512;2023-05-02T00:05:32;19.55;;;7.45;;
60026;SDS011;45891;53.006;6.512;2023-05-02T00:07:59;17.60;;;7.13;;
60026;SDS011;45891;53.006;6.512;2023-05-02T00:10:25;15.93;;;6.15;;
60026;SDS011;45891;53.006;6.512;2023-05-02T00:12:51;17.17;;;6.75;;
60026;SDS011;45891;53.006;6.512;2023-05-02T00:15:17;19.45;;;6.18;;
60026;SDS011;45891;53.006;6.512;2023-05-02T00:17:43;15.60;;;6.53;;
60026;SDS011;45891;53.006;6.512;2023-05-02T00:20:10;17.92;;;6.53;;
60026;SDS011;45891;53.006;6.512;2023-05-02T00:22:37;21.85;;;7.50;;
60026;SDS011;45891;53.006;6.512;2023-05-02T00:25:04;20.90;;;7.95;;
60026;SDS011;45891;53.006;6.512;2023-05-02T00:27:31;22.65;;;8.73;;
60026;SDS011;45891;53.006;6.512;2023-05-02T00:29:57;22.58;;;8.38;;
60026;SDS011;45891;53.006;6.512;2023-05-02T00:32:25;21.63;;;7.10;;
60026;SDS011;45891;53.006;6.512;2023-05-02T00:34:51;18.58;;;7.25;;
60026;SDS011;45891;53.006;6.512;2023-05-02T00:37:18;20.10;;;6.55;;
60026;SDS011;45891;53.006;6.512;2023-05-02T00:39:44;22.60;;;7.32;;
60026;SDS011;45891;53.006;6.512;2023-05-02T00:42:10;19.92;;;7.15;;
60026;SDS011;45891;53.006;6.512;2023-05-02T00:44:36;20.80;;;6.85;;
60026;SDS011;45891;53.006;6.512;2023-05-02T00:47:03;22.08;;;6.78;;
60026;SDS011;45891;53.006;6.512;2023-05-02T00:49:29;21.60;;;6.93;;
60026;SDS011;45891;53.006;6.512;2023-05-02T00:51:55;21.33;;;7.03;;
60026;SDS011;45891;53.006;6.512;2023-05-02T00:54:23;19.63;;;6.20;;
60026;SDS011;45891;53.006;6.512;2023-05-02T00:56:49;18.33;;;5.70;;
60026;SDS011;45891;53.006;6.512;2023-05-02T00:59:15;21.33;;;6.88;;
60026;SDS011;45891;53.006;6.512;2023-05-02T01:10:08;20.40;;;6.30;;
60026;SDS011;45891;53.006;6.512;2023-05-02T01:12:42;19.02;;;5.82;;
60026;SDS011;45891;53.006;6.512;2023-05-02T01:15:18;17.15;;;4.82;;
60026;SDS011;45891;53.006;6.512;2023-05-02T01:17:47;18.95;;;5.40;;
60026;SDS011;45891;53.006;6.512;2023-05-02T01:20:16;17.90;;;4.95;;
60026;SDS011;45891;53.006;6.512;2023-05-02T01:22:45;18.20;;;4.75;;
60026;SDS011;45891;53.006;6.512;2023-05-02T01:27:53;13.60;;;4.20;;
60026;SDS011;45891;53.006;6.512;2023-05-02T01:30:40;13.32;;;4.20;;
60026;SDS011;45891;53.006;6.512;2023-05-02T01:33:10;15.93;;;4.20;;
60026;SDS011;45891;53.006;6.512;2023-05-02T01:35:38;14.63;;;4.10;;
60026;SDS011;45891;53.006;6.512;2023-05-02T01:38:06;13.18;;;4.10;;
60026;SDS011;45891;53.006;6.512;2023-05-02T01:40:32;15.13;;;4.18;;
60026;SDS011;45891;53.006;6.512;2023-05-02T01:43:01;15.38;;;4.53;;
60026;SDS011;45891;53.006;6.512;2023-05-02T01:45:29;15.77;;;3.90;;
60026;SDS011;45891;53.006;6.512;2023-05-02T01:47:58;15.40;;;3.90;;
60026;SDS011;45891;53.006;6.512;2023-05-02T01:50:26;15.48;;;3.85;;
60026;SDS011;45891;53.006;6.512;2023-05-02T01:52:52;15.85;;;4.22;;
60026;SDS011;45891;53.006;6.512;2023-05-02T01:55:20;13.80;;;4.55;;
60026;SDS011;45891;53.006;6.512;2023-05-02T01:57:48;23.08;;;5.20;;
60026;SDS011;45891;53.006;6.512;2023-05-02T02:00:17;19.85;;;5.07;;
60026;SDS011;45891;53.006;6.512;2023-05-02T02:02:44;15.88;;;4.90;;
60026;SDS011;45891;53.006;6.512;2023-05-02T02:05:13;27.08;;;5.43;;
60026;SDS011;45891;53.006;6.512;2023-05-02T02:07:40;17.70;;;5.43;;
60026;SDS011;45891;53.006;6.512;2023-05-02T02:10:08;21.27;;;4.97;;
60026;SDS011;45891;53.006;6.512;2023-05-02T02:12:38;23.38;;;5.47;;
60026;SDS011;45891;53.006;6.512;2023-05-02T02:17:40;26.25;;;5.25;;
60026;SDS011;45891;53.006;6.512;2023-05-02T02:20:10;24.70;;;5.40;;
60026;SDS011;45891;53.006;6.512;2023-05-02T02:22:38;26.02;;;5.55;;
60026;SDS011;45891;53.006;6.512;2023-05-02T02:25:07;22.35;;;5.55;;
60026;SDS011;45891;53.006;6.512;2023-05-02T02:27:37;26.20;;;5.70;;
60026;SDS011;45891;53.006;6.512;2023-05-02T02:30:04;30.95;;;6.20;;
60026;SDS011;45891;53.006;6.512;2023-05-02T02:32:32;31.10;;;6.20;;
60026;SDS011;45891;53.006;6.512;2023-05-02T02:34:58;26.85;;;5.88;;
60026;SDS011;45891;53.006;6.512;2023-05-02T02:37:30;25.92;;;5.15;;
60026;SDS011;45891;53.006;6.512;2023-05-02T02:40:11;25.50;;;5.07;;
60026;SDS011;45891;53.006;6.512;2023-05-02T02:45:34;34.53;;;5.85;;
60026;SDS011;45891;53.006;6.512;2023-05-02T02:50:53;30.58;;;5.30;;
60026;SDS011;45891;53.006;6.512;2023-05-02T02:53:45;31.02;;;6.07;;
60026;SDS011;45891;53.006;6.512;2023-05-02T02:56:24;34.05;;;6.20;;
60026;SDS011;45891;53.006;6.512;2023-05-02T02:58:56;33.72;;;6.95;;
60026;SDS011;45891;53.006;6.512;2023-05-02T03:01:30;29.73;;;6.03;;
60026;SDS011;45891;53.006;6.512;2023-05-02T03:03:57;35.38;;;5.53;;
60026;SDS011;45891;53.006;6.512;2023-05-02T03:06:24;30.65;;;5.53;;
60026;SDS011;45891;53.006;6.512;2023-05-02T03:08:51;31.15;;;5.97;;
60026;SDS011;45891;53.006;6.512;2023-05-02T03:11:17;27.30;;;5.50;;
60026;SDS011;45891;53.006;6.512;2023-05-02T03:13:44;39.25;;;6.18;;
60026;SDS011;45891;53.006;6.512;2023-05-02T03:16:15;27.77;;;5.57;;
60026;SDS011;45891;53.006;6.512;2023-05-02T03:18:53;24.20;;;5.15;;
60026;SDS011;45891;53.006;6.512;2023-05-02T03:21:19;27.23;;;5.72;;
60026;SDS011;45891;53.006;6.512;2023-05-02T03:23:45;27.55;;;5.57;;
60026;SDS011;45891;53.006;6.512;2023-05-02T03:26:11;26.83;;;5.47;;
60026;SDS011;45891;53.006;6.512;2023-05-02T03:28:38;27.10;;;5.65;;
60026;SDS011;45891;53.006;6.512;2023-05-02T03:31:04;26.40;;;5.60;;
60026;SDS011;45891;53.006;6.512;2023-05-02T03:33:30;19.90;;;4.45;;
60026;SDS011;45891;53.006;6.512;2023-05-02T03:35:57;21.08;;;4.32;;
60026;SDS011;45891;53.006;6.512;2023-05-02T03:38:23;21.88;;;4.32;;
60026;SDS011;45891;53.006;6.512;2023-05-02T03:40:49;23.30;;;4.05;;
60026;SDS011;45891;53.006;6.512;2023-05-02T03:43:15;22.20;;;4.93;;
60026;SDS011;45891;53.006;6.512;2023-05-02T03:45:41;22.33;;;3.70;;
60026;SDS011;45891;53.006;6.512;2023-05-02T03:48:07;22.60;;;3.80;;
60026;SDS011;45891;53.006;6.512;2023-05-02T03:50:33;20.60;;;4.22;;
60026;SDS011;45891;53.006;6.512;2023-05-02T03:52:59;19.77;;;4.45;;
60026;SDS011;45891;53.006;6.512;2023-05-02T03:55:26;17.50;;;3.55;;
60026;SDS011;45891;53.006;6.512;2023-05-02T03:57:52;24.63;;;3.92;;
60026;SDS011;45891;53.006;6.512;2023-05-02T04:00:19;24.90;;;3.88;;
60026;SDS011;45891;53.006;6.512;2023-05-02T04:02:45;24.80;;;3.85;;
60026;SDS011;45891;53.006;6.512;2023-05-02T04:05:11;23.48;;;4.20;;
60026;SDS011;45891;53.006;6.512;2023-05-02T04:07:37;20.67;;;3.40;;
60026;SDS011;45891;53.006;6.512;2023-05-02T04:10:03;17.02;;;3.58;;
60026;SDS011;45891;53.006;6.512;2023-05-02T04:12:30;21.40;;;3.75;;
60026;SDS011;45891;53.006;6.512;2023-05-02T04:14:56;15.27;;;3.13;;
60026;SDS011;45891;53.006;6.512;2023-05-02T04:17:22;25.38;;;4.07;;
60026;SDS011;45891;53.006;6.512;2023-05-02T04:19:48;20.55;;;3.13;;
60026;SDS011;45891;53.006;6.512;2023-05-02T04:22:15;18.90;;;3.72;;
60026;SDS011;45891;53.006;6.512;2023-05-02T04:24:41;16.38;;;3.10;;
60026;SDS011;45891;53.006;6.512;2023-05-02T04:27:07;12.50;;;2.67;;
60026;SDS011;45891;53.006;6.512;2023-05-02T04:29:34;18.27;;;2.97;;
60026;SDS011;45891;53.006;6.512;2023-05-02T04:32:00;16.40;;;3.13;;
60026;SDS011;45891;53.006;6.512;2023-05-02T04:34:26;17.67;;;3.25;;
60026;SDS011;45891;53.006;6.512;2023-05-02T04:36:53;22.08;;;3.40;;
60026;SDS011;45891;53.006;6.512;2023-05-02T04:39:19;15.57;;;2.88;;
60026;SDS011;45891;53.006;6.512;2023-05-02T04:41:45;18.13;;;2.80;;
60026;SDS011;45891;53.006;6.512;2023-05-02T04:44:11;18.02;;;3.22;;
60026;SDS011;45891;53.006;6.512;2023-05-02T04:46:37;19.20;;;2.80;;
60026;SDS011;45891;53.006;6.512;2023-05-02T04:49:03;21.85;;;3.60;;
60026;SDS011;45891;53.006;6.512;2023-05-02T04:51:29;13.90;;;2.58;;
60026;SDS011;45891;53.006;6.512;2023-05-02T04:53:56;16.15;;;2.80;;
60026;SDS011;45891;53.006;6.512;2023-05-02T04:56:22;17.27;;;3.03;;
60026;SDS011;45891;53.006;6.512;2023-05-02T04:58:48;16.42;;;2.70;;
60026;SDS011;45891;53.006;6.512;2023-05-02T05:01:14;14.15;;;2.60;;
60026;SDS011;45891;53.006;6.512;2023-05-02T05:03:40;16.02;;;2.53;;
60026;SDS011;45891;53.006;6.512;2023-05-02T05:06:07;11.45;;;2.10;;
60026;SDS011;45891;53.006;6.512;2023-05-02T05:08:33;15.43;;;2.70;;
60026;SDS011;45891;53.006;6.512;2023-05-02T05:10:59;18.17;;;2.95;;
60026;SDS011;45891;53.006;6.512;2023-05-02T05:13:26;14.13;;;2.72;;
60026;SDS011;45891;53.006;6.512;2023-05-02T05:15:52;17.45;;;3.40;;
60026;SDS011;45891;53.006;6.512;2023-05-02T05:18:19;16.50;;;3.08;;
60026;SDS011;45891;53.006;6.512;2023-05-02T05:20:45;13.57;;;2.80;;
60026;SDS011;45891;53.006;6.512;2023-05-02T05:23:11;14.35;;;3.20;;
60026;SDS011;45891;53.006;6.512;2023-05-02T05:25:37;17.05;;;2.95;;
60026;SDS011;45891;53.006;6.512;2023-05-02T05:28:04;12.20;;;2.80;;
60026;SDS011;45891;53.006;6.512;2023-05-02T05:30:30;13.85;;;2.80;;
60026;SDS011;45891;53.006;6.512;2023-05-02T05:32:57;17.88;;;3.13;;
60026;SDS011;45891;53.006;6.512;2023-05-02T05:35:23;16.42;;;3.05;;
60026;SDS011;45891;53.006;6.512;2023-05-02T05:37:50;14.20;;;3.03;;
60026;SDS011;45891;53.006;6.512;2023-05-02T05:40:16;15.63;;;2.85;;
60026;SDS011;45891;53.006;6.512;2023-05-02T05:42:42;17.30;;;3.17;;
60026;SDS011;45891;53.006;6.512;2023-05-02T05:45:09;13.88;;;2.65;;
60026;SDS011;45891;53.006;6.512;2023-05-02T05:47:35;19.05;;;2.97;;
60026;SDS011;45891;53.006;6.512;2023-05-02T05:50:01;20.00;;;3.47;;
60026;SDS011;45891;53.006;6.512;2023-05-02T05:52:27;15.50;;;2.80;;
60026;SDS011;45891;53.006;6.512;2023-05-02T05:54:53;16.50;;;3.05;;
60026;SDS011;45891;53.006;6.512;2023-05-02T05:57:22;15.82;;;3.20;;
60026;SDS011;45891;53.006;6.512;2023-05-02T05:59:48;13.63;;;2.90;;
60026;SDS011;45891;53.006;6.512;2023-05-02T06:02:15;18.42;;;2.72;;
60026;SDS011;45891;53.006;6.512;2023-05-02T06:04:41;12.85;;;2.92;;
60026;SDS011;45891;53.006;6.512;2023-05-02T06:07:07;14.52;;;3.28;;
60026;SDS011;45891;53.006;6.512;2023-05-02T06:09:33;19.55;;;3.03;;
60026;SDS011;45891;53.006;6.512;2023-05-02T06:12:02;18.38;;;3.47;;
60026;SDS011;45891;53.006;6.512;2023-05-02T06:14:29;17.63;;;3.00;;
60026;SDS011;45891;53.006;6.512;2023-05-02T06:16:57;14.88;;;3.05;;
60026;SDS011;45891;53.006;6.512;2023-05-02T06:19:24;16.83;;;3.08;;
60026;SDS011;45891;53.006;6.512;2023-05-02T06:21:50;18.30;;;3.53;;
60026;SDS011;45891;53.006;6.512;2023-05-02T06:24:16;17.75;;;2.85;;
60026;SDS011;45891;53.006;6.512;2023-05-02T06:26:42;11.50;;;2.72;;
60026;SDS011;45891;53.006;6.512;2023-05-02T06:29:08;13.63;;;2.90;;
60026;SDS011;45891;53.006;6.512;2023-05-02T06:31:34;16.83;;;2.97;;
60026;SDS011;45891;53.006;6.512;2023-05-02T06:34:00;16.38;;;3.05;;
60026;SDS011;45891;53.006;6.512;2023-05-02T06:36:26;14.43;;;2.80;;
60026;SDS011;45891;53.006;6.512;2023-05-02T06:38:53;13.07;;;2.88;;
60026;SDS011;45891;53.006;6.512;2023-05-02T06:41:19;16.30;;;2.83;;
60026;SDS011;45891;53.006;6.512;2023-05-02T06:43:45;15.85;;;2.92;;
60026;SDS011;45891;53.006;6.512;2023-05-02T06:46:11;15.68;;;2.95;;
60026;SDS011;45891;53.006;6.512;2023-05-02T06:48:37;14.60;;;3.10;;
60026;SDS011;45891;53.006;6.512;2023-05-02T06:51:03;16.10;;;3.20;;
60026;SDS011;45891;53.006;6.512;2023-05-02T06:53:30;17.95;;;3.42;;
60026;SDS011;45891;53.006;6.512;2023-05-02T06:55:56;16.80;;;3.13;;
60026;SDS011;45891;53.006;6.512;2023-05-02T06:58:22;14.37;;;3.20;;
60026;SDS011;45891;53.006;6.512;2023-05-02T07:00:49;17.95;;;3.60;;
60026;SDS011;45891;53.006;6.512;2023-05-02T07:03:15;20.85;;;4.00;;
60026;SDS011;45891;53.006;6.512;2023-05-02T07:05:41;16.33;;;3.33;;
60026;SDS011;45891;53.006;6.512;2023-05-02T07:08:07;15.32;;;3.47;;
60026;SDS011;45891;53.006;6.512;2023-05-02T07:10:34;18.38;;;3.22;;
60026;SDS011;45891;53.006;6.512;2023-05-02T07:13:01;17.70;;;4.13;;
60026;SDS011;45891;53.006;6.512;2023-05-02T07:15:27;14.57;;;3.10;;
60026;SDS011;45891;53.006;6.512;2023-05-02T07:17:53;15.45;;;3.50;;
60026;SDS011;45891;53.006;6.512;2023-05-02T07:20:19;17.05;;;3.80;;
60026;SDS011;45891;53.006;6.512;2023-05-02T07:22:45;15.55;;;3.28;;
60026;SDS011;45891;53.006;6.512;2023-05-02T07:25:11;15.40;;;3.33;;
60026;SDS011;45891;53.006;6.512;2023-05-02T07:27:37;17.30;;;3.63;;
60026;SDS011;45891;53.006;6.512;2023-05-02T07:30:04;16.85;;;3.30;;
60026;SDS011;45891;53.006;6.512;2023-05-02T07:32:31;14.27;;;3.33;;
60026;SDS011;45891;53.006;6.512;2023-05-02T07:34:57;16.25;;;3.25;;
60026;SDS011;45891;53.006;6.512;2023-05-02T07:37:23;15.35;;;3.08;;
60026;SDS011;45891;53.006;6.512;2023-05-02T07:39:49;14.18;;;2.92;;
60026;SDS011;45891;53.006;6.512;2023-05-02T07:42:16;13.93;;;3.33;;
60026;SDS011;45891;53.006;6.512;2023-05-02T07:44:42;14.23;;;3.28;;
60026;SDS011;45891;53.006;6.512;2023-05-02T07:47:08;16.70;;;3.00;;
60026;SDS011;45891;53.006;6.512;2023-05-02T07:49:34;15.57;;;2.85;;
60026;SDS011;45891;53.006;6.512;2023-05-02T07:52:01;19.42;;;3.50;;
60026;SDS011;45891;53.006;6.512;2023-05-02T07:54:28;13.38;;;2.67;;
60026;SDS011;45891;53.006;6.512;2023-05-02T07:56:54;15.05;;;2.92;;
60026;SDS011;45891;53.006;6.512;2023-05-02T07:59:23;11.75;;;3.05;;
60026;SDS011;45891;53.006;6.512;2023-05-02T08:01:49;14.50;;;2.92;;
60026;SDS011;45891;53.006;6.512;2023-05-02T08:04:16;12.75;;;3.25;;
60026;SDS011;45891;53.006;6.512;2023-05-02T08:06:43;14.45;;;2.97;;
60026;SDS011;45891;53.006;6.512;2023-05-02T08:09:09;19.77;;;2.92;;
60026;SDS011;45891;53.006;6.512;2023-05-02T08:11:35;15.77;;;3.28;;
60026;SDS011;45891;53.006;6.512;2023-05-02T08:14:01;20.60;;;3.00;;
60026;SDS011;45891;53.006;6.512;2023-05-02T08:16:28;12.00;;;2.70;;
60026;SDS011;45891;53.006;6.512;2023-05-02T08:18:54;14.70;;;3.42;;
60026;SDS011;45891;53.006;6.512;2023-05-02T08:21:20;12.00;;;2.58;;
60026;SDS011;45891;53.006;6.512;2023-05-02T08:23:46;12.25;;;2.83;;
60026;SDS011;45891;53.006;6.512;2023-05-02T08:26:12;18.60;;;3.83;;
60026;SDS011;45891;53.006;6.512;2023-05-02T08:28:40;15.25;;;2.97;;
60026;SDS011;45891;53.006;6.512;2023-05-02T08:31:06;14.50;;;2.60;;
60026;SDS011;45891;53.006;6.512;2023-05-02T08:33:32;12.07;;;2.85;;
60026;SDS011;45891;53.006;6.512;2023-05-02T08:35:58;17.88;;;3.28;;
60026;SDS011;45891;53.006;6.512;2023-05-02T08:38:25;17.27;;;3.60;;
60026;SDS011;45891;53.006;6.512;2023-05-02T08:40:51;17.02;;;3.00;;
60026;SDS011;45891;53.006;6.512;2023-05-02T08:43:18;13.43;;;2.90;;
60026;SDS011;45891;53.006;6.512;2023-05-02T08:45:45;15.88;;;2.88;;
60026;SDS011;45891;53.006;6.512;2023-05-02T08:48:12;15.90;;;2.90;;
60026;SDS011;45891;53.006;6.512;2023-05-02T08:50:41;15.27;;;2.85;;
60026;SDS011;45891;53.006;6.512;2023-05-02T08:53:10;12.13;;;2.97;;
60026;SDS011;45891;53.006;6.512;2023-05-02T08:55:40;13.50;;;2.33;;
60026;SDS011;45891;53.006;6.512;2023-05-02T08:58:07;14.02;;;2.63;;
60026;SDS011;45891;53.006;6.512;2023-05-02T09:00:37;18.08;;;2.50;;
60026;SDS011;45891;53.006;6.512;2023-05-02T09:03:15;11.75;;;2.38;;
60026;SDS011;45891;53.006;6.512;2023-05-02T09:06:19;12.13;;;2.50;;
60026;SDS011;45891;53.006;6.512;2023-05-02T09:08:46;14.20;;;2.60;;
60026;SDS011;45891;53.006;6.512;2023-05-02T09:11:19;11.77;;;2.20;;
60026;SDS011;45891;53.006;6.512;2023-05-02T09:13:46;13.07;;;2.75;;
60026;SDS011;45891;53.006;6.512;2023-05-02T09:16:14;10.68;;;2.13;;
60026;SDS011;45891;53.006;6.512;2023-05-02T09:18:50;10.88;;;2.25;;
60026;SDS011;45891;53.006;6.512;2023-05-02T09:21:19;13.13;;;2.30;;
60026;SDS011;45891;53.006;6.512;2023-05-02T09:23:56;13.07;;;2.40;;
60026;SDS011;45891;53.006;6.512;2023-05-02T09:26:29;11.23;;;2.25;;
60026;SDS011;45891;53.006;6.512;2023-05-02T09:28:57;11.32;;;2.00;;
60026;SDS011;45891;53.006;6.512;2023-05-02T09:31:30;11.55;;;2.40;;
60026;SDS011;45891;53.006;6.512;2023-05-02T09:36:43;11.70;;;1.90;;
60026;SDS011;45891;53.006;6.512;2023-05-02T09:39:11;12.38;;;2.50;;
60026;SDS011;45891;53.006;6.512;2023-05-02T09:41:41;10.70;;;2.17;;
60026;SDS011;45891;53.006;6.512;2023-05-02T09:44:10;11.40;;;2.03;;
60026;SDS011;45891;53.006;6.512;2023-05-02T09:46:40;11.43;;;2.13;;
60026;SDS011;45891;53.006;6.512;2023-05-02T09:49:09;11.82;;;2.00;;
60026;SDS011;45891;53.006;6.512;2023-05-02T09:51:36;13.75;;;1.98;;
60026;SDS011;45891;53.006;6.512;2023-05-02T09:54:02;11.02;;;2.17;;
60026;SDS011;45891;53.006;6.512;2023-05-02T09:56:28;13.73;;;2.20;;
60026;SDS011;45891;53.006;6.512;2023-05-02T09:59:13;11.43;;;1.92;;
60026;SDS011;45891;53.006;6.512;2023-05-02T10:01:41;10.25;;;1.95;;
60026;SDS011;45891;53.006;6.512;2023-05-02T10:04:11;8.00;;;1.70;;
60026;SDS011;45891;53.006;6.512;2023-05-02T10:06:43;7.35;;;1.50;;
60026;SDS011;45891;53.006;6.512;2023-05-02T10:09:10;11.07;;;1.73;;
60026;SDS011;45891;53.006;6.512;2023-05-02T10:11:39;9.93;;;1.60;;
60026;SDS011;45891;53.006;6.512;2023-05-02T10:14:08;8.90;;;1.77;;
60026;SDS011;45891;53.006;6.512;2023-05-02T10:16:36;6.82;;;1.40;;
60026;SDS011;45891;53.006;6.512;2023-05-02T10:19:08;9.88;;;1.45;;
60026;SDS011;45891;53.006;6.512;2023-05-02T10:21:36;11.10;;;1.38;;
60026;SDS011;45891;53.006;6.512;2023-05-02T10:26:34;10.18;;;1.60;;
60026;SDS011;45891;53.006;6.512;2023-05-02T10:29:01;8.57;;;1.25;;
60026;SDS011;45891;53.006;6.512;2023-05-02T10:31:30;6.47;;;1.20;;
60026;SDS011;45891;53.006;6.512;2023-05-02T10:33:58;10.07;;;1.52;;
60026;SDS011;45891;53.006;6.512;2023-05-02T10:36:27;8.02;;;1.42;;
60026;SDS011;45891;53.006;6.512;2023-05-02T10:38:53;6.88;;;1.15;;
60026;SDS011;45891;53.006;6.512;2023-05-02T10:41:21;7.00;;;1.23;;
60026;SDS011;45891;53.006;6.512;2023-05-02T10:43:52;5.68;;;1.05;;
60026;SDS011;45891;53.006;6.512;2023-05-02T10:51:28;9.40;;;1.35;;
60026;SDS011;45891;53.006;6.512;2023-05-02T10:54:17;5.80;;;1.25;;
60026;SDS011;45891;53.006;6.512;2023-05-02T11:02:01;9.32;;;1.67;;
60026;SDS011;45891;53.006;6.512;2023-05-02T11:05:01;7.80;;;1.50;;
60026;SDS011;45891;53.006;6.512;2023-05-02T11:07:28;9.27;;;1.40;;
60026;SDS011;45891;53.006;6.512;2023-05-02T11:10:41;9.85;;;1.50;;
60026;SDS011;45891;53.006;6.512;2023-05-02T11:15:12;9.50;;;1.40;;
60026;SDS011;45891;53.006;6.512;2023-05-02T11:17:57;6.85;;;1.50;;
60026;SDS011;45891;53.006;6.512;2023-05-02T11:20:23;8.93;;;1.67;;
60026;SDS011;45891;53.006;6.512;2023-05-02T11:22:50;8.57;;;1.55;;
60026;SDS011;45891;53.006;6.512;2023-05-02T11:25:30;10.20;;;1.60;;
60026;SDS011;45891;53.006;6.512;2023-05-02T11:28:00;8.27;;;1.40;;
60026;SDS011;45891;53.006;6.512;2023-05-02T11:30:40;8.98;;;1.88;;
60026;SDS011;45891;53.006;6.512;2023-05-02T11:35:34;8.10;;;1.48;;
60026;SDS011;45891;53.006;6.512;2023-05-02T11:38:02;8.88;;;1.48;;
60026;SDS011;45891;53.006;6.512;2023-05-02T11:40:34;8.68;;;1.60;;
60026;SDS011;45891;53.006;6.512;2023-05-02T11:43:07;8.57;;;1.88;;
60026;SDS011;45891;53.006;6.512;2023-05-02T11:45:40;8.43;;;1.58;;
60026;SDS011;45891;53.006;6.512;2023-05-02T11:48:10;7.85;;;1.48;;
60026;SDS011;45891;53.006;6.512;2023-05-02T11:50:41;9.57;;;1.63;;
60026;SDS011;45891;53.006;6.512;2023-05-02T11:53:09;10.85;;;1.60;;
60026;SDS011;45891;53.006;6.512;2023-05-02T11:55:49;11.25;;;1.85;;
60026;SDS011;45891;53.006;6.512;2023-05-02T11:58:20;11.35;;;1.77;;
60026;SDS011;45891;53.006;6.512;2023-05-02T12:00:48;8.30;;;1.77;;
60026;SDS011;45891;53.006;6.512;2023-05-02T12:03:49;11.32;;;1.60;;
60026;SDS011;45891;53.006;6.512;2023-05-02T12:06:17;8.15;;;1.33;;
60026;SDS011;45891;53.006;6.512;2023-05-02T12:08:43;5.40;;;1.10;;
60026;SDS011;45891;53.006;6.512;2023-05-02T12:11:13;7.03;;;1.27;;
60026;SDS011;45891;53.006;6.512;2023-05-02T12:13:44;5.82;;;1.20;;
60026;SDS011;45891;53.006;6.512;2023-05-02T12:16:12;6.47;;;1.17;;
60026;SDS011;45891;53.006;6.512;2023-05-02T12:18:38;5.68;;;1.20;;
60026;SDS011;45891;53.006;6.512;2023-05-02T12:21:05;6.40;;;1.40;;
60026;SDS011;45891;53.006;6.512;2023-05-02T12:23:33;8.15;;;1.35;;
60026;SDS011;45891;53.006;6.512;2023-05-02T12:26:09;6.40;;;1.23;;
60026;SDS011;45891;53.006;6.512;2023-05-02T12:28:50;7.20;;;1.23;;
60026;SDS011;45891;53.006;6.512;2023-05-02T12:31:19;7.78;;;1.30;;
60026;SDS011;45891;53.006;6.512;2023-05-02T12:33:45;7.53;;;1.20;;
60026;SDS011;45891;53.006;6.512;2023-05-02T12:36:17;7.70;;;1.27;;
60026;SDS011;45891;53.006;6.512;2023-05-02T12:38:47;8.38;;;1.52;;
60026;SDS011;45891;53.006;6.512;2023-05-02T12:41:16;7.65;;;1.30;;
60026;SDS011;45891;53.006;6.512;2023-05-02T12:43:45;6.40;;;1.23;;
60026;SDS011;45891;53.006;6.512;2023-05-02T12:46:12;9.23;;;1.23;;
60026;SDS011;45891;53.006;6.512;2023-05-02T12:48:38;7.10;;;1.30;;
60026;SDS011;45891;53.006;6.512;2023-05-02T12:51:04;5.85;;;1.30;;
60026;SDS011;45891;53.006;6.512;2023-05-02T12:53:41;7.57;;;1.40;;
60026;SDS011;45891;53.006;6.512;2023-05-02T12:56:09;6.20;;;1.30;;
60026;SDS011;45891;53.006;6.512;2023-05-02T12:58:39;9.10;;;1.55;;
60026;SDS011;45891;53.006;6.512;2023-05-02T13:01:06;6.78;;;1.20;;
60026;SDS011;45891;53.006;6.512;2023-05-02T13:03:32;6.28;;;1.38;;
60026;SDS011;45891;53.006;6.512;2023-05-02T13:05:58;6.00;;;1.20;;
60026;SDS011;45891;53.006;6.512;2023-05-02T13:08:25;5.53;;;1.05;;
60026;SDS011;45891;53.006;6.512;2023-05-02T13:10:51;5.40;;;1.00;;
60026;SDS011;45891;53.006;6.512;2023-05-02T13:13:17;6.13;;;1.17;;
60026;SDS011;45891;53.006;6.512;2023-05-02T13:15:43;5.00;;;0.90;;
60026;SDS011;45891;53.006;6.512;2023-05-02T13:18:09;4.68;;;0.90;;
60026;SDS011;45891;53.006;6.512;2023-05-02T13:20:36;7.00;;;1.35;;
60026;SDS011;45891;53.006;6.512;2023-05-02T13:23:02;7.15;;;1.30;;
60026;SDS011;45891;53.006;6.512;2023-05-02T13:25:28;7.18;;;1.10;;
60026;SDS011;45891;53.006;6.512;2023-05-02T13:27:54;10.25;;;1.40;;
60026;SDS011;45891;53.006;6.512;2023-05-02T13:30:20;5.35;;;1.00;;
60026;SDS011;45891;53.006;6.512;2023-05-02T13:32:46;4.95;;;0.98;;
60026;SDS011;45891;53.006;6.512;2023-05-02T13:35:12;7.00;;;1.20;;
60026;SDS011;45891;53.006;6.512;2023-05-02T13:37:40;5.18;;;1.08;;
60026;SDS011;45891;53.006;6.512;2023-05-02T13:40:06;7.60;;;1.00;;
60026;SDS011;45891;53.006;6.512;2023-05-02T13:42:33;6.25;;;0.90;;
60026;SDS011;45891;53.006;6.512;2023-05-02T13:44:59;9.02;;;1.17;;
60026;SDS011;45891;53.006;6.512;2023-05-02T13:47:29;3.35;;;0.88;;
60026;SDS011;45891;53.006;6.512;2023-05-02T13:49:55;5.60;;;0.93;;
60026;SDS011;45891;53.006;6.512;2023-05-02T13:52:21;9.00;;;1.17;;
60026;SDS011;45891;53.006;6.512;2023-05-02T13:54:48;7.75;;;1.50;;
60026;SDS011;45891;53.006;6.512;2023-05-02T13:57:14;6.15;;;1.10;;
60026;SDS011;45891;53.006;6.512;2023-05-02T13:59:40;8.27;;;1.30;;
60026;SDS011;45891;53.006;6.512;2023-05-02T14:02:06;7.22;;;1.10;;
60026;SDS011;45891;53.006;6.512;2023-05-02T14:04:32;7.57;;;1.15;;
60026;SDS011;45891;53.006;6.512;2023-05-02T14:06:58;10.27;;;1.20;;
60026;SDS011;45891;53.006;6.512;2023-05-02T14:09:24;6.55;;;1.10;;
60026;SDS011;45891;53.006;6.512;2023-05-02T14:11:51;5.45;;;1.00;;
60026;SDS011;45891;53.006;6.512;2023-05-02T14:14:17;7.13;;;1.20;;
60026;SDS011;45891;53.006;6.512;2023-05-02T14:16:43;6.55;;;1.20;;
60026;SDS011;45891;53.006;6.512;2023-05-02T14:19:09;8.73;;;1.52;;
60026;SDS011;45891;53.006;6.512;2023-05-02T14:21:35;5.28;;;1.00;;
60026;SDS011;45891;53.006;6.512;2023-05-02T14:24:03;6.43;;;1.10;;
60026;SDS011;45891;53.006;6.512;2023-05-02T14:26:31;2.67;;;0.80;;
60026;SDS011;45891;53.006;6.512;2023-05-02T14:28:57;8.25;;;1.17;;
60026;SDS011;45891;53.006;6.512;2023-05-02T14:31:24;5.00;;;0.93;;
60026;SDS011;45891;53.006;6.512;2023-05-02T14:33:50;7.70;;;1.10;;
60026;SDS011;45891;53.006;6.512;2023-05-02T14:36:16;5.95;;;1.00;;
60026;SDS011;45891;53.006;6.512;2023-05-02T14:38:42;6.70;;;0.90;;
60026;SDS011;45891;53.006;6.512;2023-05-02T14:41:08;7.32;;;1.13;;
60026;SDS011;45891;53.006;6.512;2023-05-02T14:43:34;9.10;;;1.42;;
60026;SDS011;45891;53.006;6.512;2023-05-02T14:46:01;8.93;;;1.10;;
60026;SDS011;45891;53.006;6.512;2023-05-02T14:48:28;6.78;;;0.90;;
60026;SDS011;45891;53.006;6.512;2023-05-02T14:50:54;5.43;;;1.00;;
60026;SDS011;45891;53.006;6.512;2023-05-02T14:53:21;8.90;;;1.20;;
60026;SDS011;45891;53.006;6.512;2023-05-02T14:55:48;9.27;;;1.13;;
60026;SDS011;45891;53.006;6.512;2023-05-02T14:58:14;5.45;;;1.00;;
60026;SDS011;45891;53.006;6.512;2023-05-02T15:00:45;5.82;;;0.80;;
60026;SDS011;45891;53.006;6.512;2023-05-02T15:03:11;6.22;;;0.98;;
60026;SDS011;45891;53.006;6.512;2023-05-02T15:05:37;4.47;;;0.82;;
60026;SDS011;45891;53.006;6.512;2023-05-02T15:08:04;4.88;;;0.90;;
60026;SDS011;45891;53.006;6.512;2023-05-02T15:10:30;8.68;;;1.15;;
60026;SDS011;45891;53.006;6.512;2023-05-02T15:13:00;8.23;;;1.30;;
60026;SDS011;45891;53.006;6.512;2023-05-02T15:15:28;6.47;;;1.15;;
60026;SDS011;45891;53.006;6.512;2023-05-02T15:17:54;9.25;;;1.40;;
60026;SDS011;45891;53.006;6.512;2023-05-02T15:20:20;9.38;;;1.25;;
60026;SDS011;45891;53.006;6.512;2023-05-02T15:22:46;7.35;;;1.30;;